createdAt,value
2018-07-20T00:01:48.706Z,9.18
2018-07-20T00:04:17.408Z,9.00
2018-07-20T00:06:45.627Z,7.87
2018-07-20T00:09:14.385Z,8.03
2018-07-20T00:11:44.044Z,8.40
2018-07-20T00:14:12.635Z,8.45
2018-07-20T00:16:41.455Z,7.72
2018-07-20T00:19:10.094Z,10.28
2018-07-20T00:21:38.720Z,8.50
2018-07-20T00:24:07.402Z,8.80
2018-07-20T00:26:36.001Z,6.55
2018-07-20T00:29:05.675Z,6.62
2018-07-20T00:31:34.357Z,7.50
2018-07-20T00:34:02.985Z,5.58
2018-07-20T00:36:32.581Z,6.80
2018-07-20T00:39:01.223Z,8.18
2018-07-20T00:41:29.494Z,6.83
2018-07-20T00:43:58.073Z,8.83
2018-07-20T00:46:26.840Z,7.00
2018-07-20T00:48:55.543Z,7.85
2018-07-20T00:51:24.175Z,8.53
2018-07-20T00:53:53.985Z,10.95
2018-07-20T00:56:22.662Z,7.28
2018-07-20T00:58:51.867Z,6.78
2018-07-20T01:01:22.633Z,10.48
2018-07-20T01:03:51.226Z,9.48
2018-07-20T01:06:20.047Z,11.90
2018-07-20T01:08:48.799Z,6.80
2018-07-20T01:11:17.445Z,10.53
2018-07-20T01:13:46.157Z,7.43
2018-07-20T01:16:14.801Z,8.73
2018-07-20T01:18:43.536Z,8.05
2018-07-20T01:21:12.124Z,8.33
2018-07-20T01:23:40.798Z,8.73
2018-07-20T01:26:10.472Z,11.75
2018-07-20T01:28:39.124Z,10.75
2018-07-20T01:31:07.866Z,7.40
2018-07-20T01:33:36.777Z,7.17
2018-07-20T01:36:06.379Z,6.95
2018-07-20T01:38:35.003Z,9.60
2018-07-20T01:41:03.622Z,8.50
2018-07-20T01:43:33.368Z,6.67
2018-07-20T01:46:03.010Z,6.95
2018-07-20T01:48:31.732Z,7.08
2018-07-20T01:51:01.395Z,6.72
2018-07-20T01:53:30.025Z,8.33
2018-07-20T01:55:59.195Z,6.62
2018-07-20T01:58:27.919Z,12.33
2018-07-20T02:00:56.620Z,6.72
2018-07-20T02:03:29.314Z,7.12
2018-07-20T02:06:00.063Z,8.55
2018-07-20T02:08:28.758Z,8.95
2018-07-20T02:10:59.578Z,8.95
2018-07-20T02:13:28.207Z,7.27
2018-07-20T02:15:58.559Z,7.58
2018-07-20T02:18:31.215Z,8.13
2018-07-20T02:21:02.948Z,8.45
2018-07-20T02:23:31.628Z,6.95
2018-07-20T02:26:00.284Z,6.62
2018-07-20T02:28:28.878Z,10.25
2018-07-20T02:30:57.501Z,7.20
2018-07-20T02:33:26.153Z,9.18
2018-07-20T02:35:56.369Z,8.70
2018-07-20T02:38:26.892Z,7.42
2018-07-20T02:40:55.595Z,7.42
2018-07-20T02:43:25.247Z,7.45
2018-07-20T02:45:53.959Z,7.40
2018-07-20T02:48:23.548Z,9.05
2018-07-20T02:50:52.177Z,8.23
2018-07-20T02:53:20.923Z,9.73
2018-07-20T02:55:49.657Z,8.83
2018-07-20T02:58:19.359Z,12.78
2018-07-20T03:00:48.107Z,7.93
2018-07-20T03:03:16.806Z,7.90
2018-07-20T03:05:46.082Z,6.97
2018-07-20T03:08:14.814Z,11.05
2018-07-20T03:10:44.566Z,8.90
2018-07-20T03:13:13.281Z,8.08
2018-07-20T03:15:42.060Z,8.83
2018-07-20T03:18:11.349Z,7.83
2018-07-20T03:20:40.562Z,8.58
2018-07-20T03:23:09.362Z,8.70
2018-07-20T03:25:37.603Z,13.10
2018-07-20T03:28:06.264Z,6.73
2018-07-20T03:30:34.894Z,6.40
2018-07-20T03:33:04.388Z,8.28
2018-07-20T03:35:33.971Z,10.98
2018-07-20T03:38:04.871Z,7.75
2018-07-20T03:40:33.532Z,10.53
2018-07-20T03:43:02.498Z,8.75
2018-07-20T03:45:31.166Z,6.75
2018-07-20T03:47:59.770Z,6.35
2018-07-20T03:50:29.430Z,11.68
2018-07-20T03:52:58.095Z,8.38
2018-07-20T03:55:26.909Z,9.43
2018-07-20T03:58:00.745Z,8.08
2018-07-20T04:00:30.375Z,6.77
2018-07-20T04:02:59.083Z,7.53
2018-07-20T04:05:27.754Z,6.47
2018-07-20T04:07:56.414Z,8.98
2018-07-20T04:10:25.023Z,13.50
2018-07-20T04:12:53.823Z,10.90
2018-07-20T04:15:23.509Z,9.70
2018-07-20T04:17:53.264Z,18.20
2018-07-20T04:20:22.909Z,12.93
2018-07-20T04:22:52.233Z,9.30
2018-07-20T04:25:20.939Z,12.13
2018-07-20T04:27:49.710Z,10.15
2018-07-20T04:30:20.394Z,11.50
2018-07-20T04:32:49.032Z,14.13
2018-07-20T04:35:17.679Z,7.53
2018-07-20T04:37:46.271Z,12.40
2018-07-20T04:40:14.983Z,8.70
2018-07-20T04:42:43.800Z,11.65
2018-07-20T04:45:12.526Z,10.48
2018-07-20T04:47:41.328Z,8.85
2018-07-20T04:50:13.928Z,13.22
2018-07-20T04:52:49.124Z,10.95
2018-07-20T04:55:18.534Z,7.65
2018-07-20T04:57:48.162Z,7.30
2018-07-20T05:00:16.791Z,7.62
2018-07-20T05:02:45.515Z,6.53
2018-07-20T05:05:15.147Z,19.45
2018-07-20T05:07:43.862Z,17.48
2018-07-20T05:10:12.796Z,9.60
2018-07-20T05:12:42.454Z,7.67
2018-07-20T05:15:11.257Z,9.93
2018-07-20T05:17:39.920Z,15.70
2018-07-20T05:20:09.217Z,15.30
2018-07-20T05:22:37.880Z,15.48
2018-07-20T05:25:07.739Z,6.42
2018-07-20T05:27:36.460Z,7.30
2018-07-20T05:30:05.975Z,10.50
2018-07-20T05:32:35.914Z,12.00
2018-07-20T05:35:04.546Z,7.63
2018-07-20T05:37:33.907Z,7.30
2018-07-20T05:40:02.605Z,12.23
2018-07-20T05:42:31.246Z,16.20
2018-07-20T05:45:00.613Z,15.48
2018-07-20T05:47:29.307Z,11.78
2018-07-20T05:49:57.952Z,10.68
2018-07-20T05:52:26.678Z,11.30
2018-07-20T05:54:57.776Z,10.90
2018-07-20T05:57:26.454Z,9.38
2018-07-20T05:59:56.132Z,7.17
2018-07-20T06:02:24.935Z,7.58
2018-07-20T06:04:55.655Z,8.77
2018-07-20T06:07:25.281Z,9.38
2018-07-20T06:09:54.020Z,11.87
2018-07-20T06:12:22.900Z,8.15
2018-07-20T06:14:51.568Z,12.15
2018-07-20T06:17:20.288Z,11.18
2018-07-20T06:19:49.035Z,8.33
2018-07-20T06:22:18.798Z,15.93
2018-07-20T06:24:48.062Z,13.05
2018-07-20T06:27:18.329Z,11.30
2018-07-20T06:29:47.082Z,8.50
2018-07-20T06:32:15.814Z,9.95
2018-07-20T06:34:44.528Z,10.37
2018-07-20T06:37:13.244Z,12.23
2018-07-20T06:39:42.030Z,17.57
2018-07-20T06:42:10.681Z,8.95
2018-07-20T06:44:39.304Z,15.20
2018-07-20T06:47:08.090Z,8.10
2018-07-20T06:49:37.751Z,8.08
2018-07-20T06:52:07.579Z,9.85
2018-07-20T06:54:36.307Z,7.97
2018-07-20T06:57:06.196Z,10.68
2018-07-20T06:59:34.976Z,8.00
2018-07-20T07:02:11.280Z,10.23
2018-07-20T07:04:44.172Z,9.60
2018-07-20T07:07:18.518Z,13.13
2018-07-20T07:09:48.269Z,11.45
2018-07-20T07:12:17.917Z,11.53
2018-07-20T07:14:46.692Z,8.25
2018-07-20T07:17:18.829Z,9.60
2018-07-20T07:19:49.518Z,8.53
2018-07-20T07:22:18.347Z,11.40
2018-07-20T07:24:47.060Z,8.88
2018-07-20T07:27:15.957Z,9.18
2018-07-20T07:29:44.727Z,9.83
2018-07-20T07:32:13.579Z,7.67
2018-07-20T07:34:42.365Z,10.97
2018-07-20T07:37:11.114Z,8.25
2018-07-20T07:39:39.824Z,8.80
2018-07-20T07:42:15.297Z,11.93
2018-07-20T07:44:44.402Z,10.93
2018-07-20T07:47:13.123Z,9.33
2018-07-20T07:49:43.979Z,10.78
2018-07-20T07:52:12.853Z,9.60
2018-07-20T07:54:42.623Z,8.55
2018-07-20T07:57:11.620Z,9.73
2018-07-20T07:59:42.856Z,9.40
2018-07-20T08:02:13.642Z,10.10
2018-07-20T08:04:42.353Z,11.30
2018-07-20T08:07:16.299Z,8.75
2018-07-20T08:09:45.159Z,12.70
2018-07-20T08:12:14.790Z,14.87
2018-07-20T08:14:47.609Z,14.23
2018-07-20T08:17:16.279Z,14.57
2018-07-20T08:19:50.356Z,10.23
2018-07-20T08:22:19.104Z,15.15
2018-07-20T08:24:47.902Z,16.90
2018-07-20T08:27:18.767Z,13.40
2018-07-20T08:29:48.445Z,11.07
2018-07-20T08:32:17.179Z,11.63
2018-07-20T08:34:47.820Z,15.67
2018-07-20T08:37:16.489Z,14.35
2018-07-20T08:39:45.230Z,12.10
2018-07-20T08:42:14.920Z,12.70
2018-07-20T08:44:44.601Z,12.73
2018-07-20T08:47:13.287Z,14.85
2018-07-20T08:49:44.181Z,13.93
2018-07-20T08:52:16.995Z,11.12
2018-07-20T08:54:45.797Z,11.67
2018-07-20T08:57:14.528Z,11.57
2018-07-20T08:59:43.377Z,11.77
2018-07-20T09:02:13.058Z,14.63
2018-07-20T09:04:42.830Z,12.10
2018-07-20T09:07:11.573Z,14.15
2018-07-20T09:09:40.347Z,14.13
2018-07-20T09:12:09.156Z,14.87
2018-07-20T09:14:38.013Z,13.93
2018-07-20T09:17:07.782Z,14.40
2018-07-20T09:19:36.482Z,13.13
2018-07-20T09:22:05.840Z,12.70
2018-07-20T09:24:35.007Z,11.60
2018-07-20T09:27:07.013Z,13.80
2018-07-20T09:29:39.419Z,12.28
2018-07-20T09:32:09.193Z,16.87
2018-07-20T09:34:40.326Z,20.30
2018-07-20T09:37:08.996Z,13.35
2018-07-20T09:39:37.672Z,12.23
2018-07-20T09:42:08.705Z,13.10
2018-07-20T09:44:38.443Z,16.53
2018-07-20T09:47:07.191Z,14.33
2018-07-20T09:49:36.057Z,15.03
2018-07-20T09:52:05.131Z,15.55
2018-07-20T09:54:35.371Z,14.35
2018-07-20T09:57:07.318Z,14.03
2018-07-20T09:59:40.826Z,14.38
2018-07-20T10:02:09.576Z,14.63
2018-07-20T10:04:40.173Z,19.37
2018-07-20T10:07:09.458Z,16.65
2018-07-20T10:09:39.556Z,14.30
2018-07-20T10:12:08.789Z,13.58
2018-07-20T10:14:39.604Z,13.78
2018-07-20T10:17:12.248Z,13.18
2018-07-20T10:19:40.950Z,17.75
2018-07-20T10:22:13.631Z,12.47
2018-07-20T10:24:44.578Z,10.45
2018-07-20T10:27:15.406Z,12.03
2018-07-20T10:29:44.203Z,13.58
2018-07-20T10:32:12.946Z,13.37
2018-07-20T10:34:42.413Z,14.78
2018-07-20T10:37:13.158Z,11.20
2018-07-20T10:39:42.080Z,12.95
2018-07-20T10:42:11.063Z,11.00
2018-07-20T10:44:41.238Z,12.33
2018-07-20T10:47:10.161Z,12.50
2018-07-20T10:49:39.897Z,10.90
2018-07-20T10:52:11.019Z,9.35
2018-07-20T10:54:48.259Z,11.83
2018-07-20T10:57:18.011Z,11.60
2018-07-20T10:59:47.191Z,11.22
2018-07-20T11:02:17.052Z,11.50
2018-07-20T11:04:46.812Z,10.43
2018-07-20T11:07:21.086Z,9.45
2018-07-20T11:09:50.608Z,11.03
2018-07-20T11:12:20.031Z,9.75
2018-07-20T11:14:49.843Z,10.72
2018-07-20T11:17:20.323Z,10.45
2018-07-20T11:19:50.980Z,12.93
2018-07-20T11:22:23.628Z,12.98
2018-07-20T11:24:52.498Z,8.63
2018-07-20T11:27:27.346Z,15.15
2018-07-20T11:29:56.494Z,11.90
2018-07-20T11:32:25.860Z,11.15
2018-07-20T11:34:54.929Z,8.65
2018-07-20T11:37:24.722Z,8.80
2018-07-20T11:39:55.301Z,10.58
2018-07-20T11:42:24.848Z,9.27
2018-07-20T11:44:53.535Z,10.10
2018-07-20T11:47:22.303Z,11.33
2018-07-20T11:49:53.180Z,14.00
2018-07-20T11:52:22.945Z,11.97
2018-07-20T11:54:55.978Z,12.03
2018-07-20T11:57:25.917Z,10.53
2018-07-20T11:59:54.711Z,9.50
2018-07-20T12:02:24.671Z,9.70
2018-07-20T12:04:54.486Z,14.93
2018-07-20T12:07:28.516Z,8.68
2018-07-20T12:09:58.284Z,10.55
2018-07-20T12:12:28.045Z,8.50
2018-07-20T12:14:57.918Z,8.00
2018-07-20T12:17:26.759Z,9.50
2018-07-20T12:19:55.569Z,12.23
2018-07-20T12:22:26.425Z,11.60
2018-07-20T12:25:00.592Z,9.50
2018-07-20T12:27:29.567Z,10.93
2018-07-20T12:29:57.988Z,9.83
2018-07-20T12:32:28.944Z,11.65
2018-07-20T12:34:58.812Z,10.13
2018-07-20T12:37:28.278Z,10.23
2018-07-20T12:39:58.143Z,9.10
2018-07-20T12:42:31.989Z,8.25
2018-07-20T12:45:00.775Z,8.25
2018-07-20T12:47:29.492Z,12.15
2018-07-20T12:50:03.334Z,10.82
2018-07-20T12:52:34.436Z,8.40
2018-07-20T12:55:07.270Z,11.25
2018-07-20T12:57:41.053Z,10.75
2018-07-20T13:00:11.500Z,9.50
2018-07-20T13:02:44.491Z,9.15
2018-07-20T13:05:13.344Z,7.30
2018-07-20T13:07:44.162Z,10.93
2018-07-20T13:10:15.179Z,7.67
2018-07-20T13:12:44.872Z,10.90
2018-07-20T13:15:21.077Z,8.50
2018-07-20T13:17:49.883Z,10.55
2018-07-20T13:20:19.139Z,6.80
2018-07-20T13:22:48.094Z,11.23
2018-07-20T13:25:18.886Z,13.68
2018-07-20T13:27:53.108Z,9.40
2018-07-20T13:30:24.632Z,9.07
2018-07-20T13:32:55.000Z,11.75
2018-07-20T13:35:26.093Z,8.33
2018-07-20T13:38:00.101Z,15.97
2018-07-20T13:40:29.120Z,8.15
2018-07-20T13:42:57.941Z,9.15
2018-07-20T13:45:32.648Z,14.20
2018-07-20T13:48:02.606Z,18.35
2018-07-20T13:50:31.520Z,11.23
2018-07-20T13:53:00.434Z,11.15
2018-07-20T13:55:29.340Z,11.00
2018-07-20T13:58:02.315Z,13.50
2018-07-20T14:00:33.711Z,9.30
2018-07-20T14:03:04.007Z,6.75
2018-07-20T14:05:39.154Z,8.08
2018-07-20T14:08:08.057Z,7.93
2018-07-20T14:10:36.926Z,6.87
2018-07-20T14:13:05.912Z,6.80
2018-07-20T14:15:34.809Z,8.70
2018-07-20T14:18:03.799Z,8.23
2018-07-20T14:20:32.489Z,8.10
2018-07-20T14:23:01.284Z,6.90
2018-07-20T14:25:31.115Z,7.03
2018-07-20T14:28:10.686Z,9.78
2018-07-20T14:30:40.482Z,8.05
2018-07-20T14:33:10.728Z,10.23
2018-07-20T14:35:39.621Z,9.78
2018-07-20T14:38:08.483Z,8.80
2018-07-20T14:40:36.859Z,14.60
2018-07-20T14:43:05.593Z,7.00
2018-07-20T14:45:34.353Z,7.67
2018-07-20T14:48:04.220Z,14.83
2018-07-20T14:50:33.915Z,7.40
2018-07-20T14:53:02.816Z,10.20
2018-07-20T14:55:32.703Z,10.28
2018-07-20T14:58:09.034Z,6.65
2018-07-20T15:00:37.775Z,6.95
2018-07-20T15:03:09.926Z,6.77
2018-07-20T15:05:40.054Z,7.15
2018-07-20T15:08:08.871Z,6.67
2018-07-20T15:10:39.742Z,6.97
2018-07-20T15:13:08.490Z,6.12
2018-07-20T15:15:51.332Z,7.93
2018-07-20T15:18:20.102Z,9.55
2018-07-20T15:20:48.898Z,11.20
2018-07-20T15:23:17.799Z,8.70
2018-07-20T15:26:16.617Z,7.00
2018-07-20T15:28:46.031Z,9.83
2018-07-20T15:31:14.680Z,14.45
2018-07-20T15:33:43.703Z,20.33
2018-07-20T15:36:12.582Z,67.20
2018-07-20T15:38:41.312Z,126.25
2018-07-20T15:41:10.305Z,181.40
2018-07-20T15:43:40.228Z,213.20
2018-07-20T15:46:09.215Z,284.83
2018-07-20T15:48:37.957Z,321.55
2018-07-20T15:51:07.018Z,324.52
2018-07-20T15:53:36.276Z,346.67
2018-07-20T15:56:04.597Z,384.87
2018-07-20T15:58:33.560Z,379.63
2018-07-20T16:01:02.326Z,410.82
2018-07-20T16:03:31.118Z,447.70
2018-07-20T16:06:02.073Z,453.80
2018-07-20T16:08:30.918Z,449.68
2018-07-20T16:10:59.789Z,427.40
2018-07-20T16:13:29.092Z,441.55
2018-07-20T16:16:03.036Z,416.43
2018-07-20T16:18:32.004Z,429.50
2018-07-20T16:21:01.781Z,433.85
2018-07-20T16:23:32.744Z,446.18
2018-07-20T16:26:01.752Z,468.55
2018-07-20T16:28:30.517Z,455.30
2018-07-20T16:30:59.443Z,464.55
2018-07-20T16:33:29.251Z,480.77
2018-07-20T16:37:44.102Z,465.90
2018-07-20T16:40:12.817Z,455.43
2018-07-20T16:42:41.559Z,502.50
2018-07-20T16:45:10.263Z,498.65
2018-07-20T16:47:38.979Z,547.63
2018-07-20T16:50:07.649Z,541.80
2018-07-20T16:52:36.322Z,543.67
2018-07-20T16:55:05.008Z,560.58
2018-07-20T16:57:33.644Z,562.30
2018-07-20T17:00:02.329Z,571.65
2018-07-20T17:02:31.827Z,543.17
2018-07-20T17:05:00.465Z,580.70
2018-07-20T17:07:29.081Z,545.50
2018-07-20T17:09:57.864Z,570.55
2018-07-20T17:12:26.712Z,624.95
2018-07-20T17:14:56.410Z,604.13
2018-07-20T17:17:25.156Z,618.65
2018-07-20T17:19:53.892Z,710.80
2018-07-20T17:22:22.529Z,693.92
2018-07-20T17:24:51.281Z,678.60
2018-07-20T17:27:19.940Z,675.90
2018-07-20T17:29:48.690Z,653.27
2018-07-20T17:32:17.517Z,670.38
2018-07-20T17:34:46.233Z,658.98
2018-07-20T17:37:14.850Z,653.03
2018-07-20T17:39:43.521Z,642.72
2018-07-20T17:42:12.222Z,655.08
2018-07-20T17:44:41.900Z,685.33
2018-07-20T17:47:10.650Z,637.23
2018-07-20T17:49:39.384Z,665.95
2018-07-20T17:52:08.168Z,664.03
2018-07-20T17:54:37.020Z,656.78
2018-07-20T17:57:25.388Z,600.93
2018-07-20T17:59:54.081Z,593.15
2018-07-20T18:02:22.862Z,573.02
2018-07-20T18:04:51.573Z,570.57
2018-07-20T18:07:20.257Z,536.40
2018-07-20T18:09:48.995Z,518.67
2018-07-20T18:12:17.644Z,503.65
2018-07-20T18:14:46.342Z,470.60
2018-07-20T18:17:15.036Z,495.27
2018-07-20T18:19:43.752Z,492.17
2018-07-20T18:22:12.531Z,469.05
2018-07-20T18:24:41.373Z,456.35
2018-07-20T18:27:10.180Z,446.60
2018-07-20T18:29:38.703Z,439.55
2018-07-20T18:32:07.323Z,444.88
2018-07-20T18:34:36.040Z,425.68
2018-07-20T18:37:04.908Z,400.83
2018-07-20T18:39:33.646Z,439.65
2018-07-20T18:42:02.393Z,412.90
2018-07-20T18:44:31.103Z,407.70
2018-07-20T18:46:59.787Z,401.87
2018-07-20T18:49:28.507Z,377.22
2018-07-20T18:51:57.236Z,350.43
2018-07-20T18:54:25.983Z,349.67
2018-07-20T18:56:54.718Z,342.23
2018-07-20T18:59:23.382Z,353.42
2018-07-20T19:01:52.012Z,343.57
2018-07-20T19:04:20.634Z,358.80
2018-07-20T19:06:49.308Z,323.40
2018-07-20T19:09:18.023Z,329.02
2018-07-20T19:11:47.655Z,333.10
2018-07-20T19:14:16.421Z,309.95
2018-07-20T19:16:45.102Z,291.00
2018-07-20T19:19:13.856Z,293.90
2018-07-20T19:21:42.518Z,300.43
2018-07-20T19:24:11.152Z,302.50
2018-07-20T19:26:40.816Z,262.32
2018-07-20T19:29:09.525Z,276.40
2018-07-20T19:31:38.157Z,307.00
2018-07-20T19:34:06.561Z,236.20
2018-07-20T19:36:35.208Z,235.25
2018-07-20T19:39:05.938Z,285.55
2018-07-20T19:41:34.618Z,237.30
2018-07-20T19:44:03.472Z,202.18
2018-07-20T19:46:32.155Z,180.03
2018-07-20T19:49:00.892Z,181.18
2018-07-20T19:51:29.609Z,207.70
2018-07-20T19:53:58.225Z,188.32
2018-07-20T19:56:26.890Z,179.03
2018-07-20T19:58:55.581Z,201.98
2018-07-20T20:01:24.283Z,167.87
2018-07-20T20:03:53.168Z,174.42
2018-07-20T20:06:22.917Z,156.05
2018-07-20T20:08:52.543Z,163.35
2018-07-20T20:11:21.241Z,154.18
2018-07-20T20:13:49.836Z,150.15
2018-07-20T20:16:18.191Z,137.30
2018-07-20T20:18:46.883Z,140.10
2018-07-20T20:21:15.725Z,111.40
2018-07-20T20:23:44.444Z,125.87
2018-07-20T20:26:13.247Z,109.78
2018-07-20T20:28:42.073Z,134.47
2018-07-20T20:31:12.683Z,80.28
2018-07-20T20:33:40.961Z,106.83
2018-07-20T20:36:09.559Z,111.73
2018-07-20T20:38:39.253Z,109.30
2018-07-20T20:41:07.892Z,134.18
2018-07-20T20:43:36.547Z,141.60
2018-07-20T20:46:05.203Z,124.47
2018-07-20T20:48:33.899Z,104.80
2018-07-20T20:51:02.605Z,112.08
2018-07-20T20:53:30.883Z,113.47
2018-07-20T20:55:59.525Z,95.87
2018-07-20T20:58:28.229Z,103.05
2018-07-20T21:00:56.878Z,121.02
2018-07-20T21:03:25.634Z,123.73
2018-07-20T21:05:54.242Z,109.30
2018-07-20T21:08:23.132Z,103.45
2018-07-20T21:10:51.812Z,94.13
2018-07-20T21:13:20.451Z,77.27
2018-07-20T21:15:49.029Z,103.38
2018-07-20T21:18:17.695Z,91.50
2018-07-20T21:20:46.397Z,95.15
2018-07-20T21:23:15.006Z,68.10
2018-07-20T21:25:43.764Z,60.98
2018-07-20T21:28:12.374Z,71.85
2018-07-20T21:30:41.322Z,88.30
2018-07-20T21:33:09.973Z,87.25
2018-07-20T21:35:39.681Z,101.95
2018-07-20T21:38:10.029Z,83.87
2018-07-20T21:40:38.677Z,76.57
2018-07-20T21:43:07.402Z,57.95
2018-07-20T21:45:36.010Z,61.55
2018-07-20T21:48:04.652Z,65.35
2018-07-20T21:50:33.232Z,40.43
2018-07-20T21:53:01.817Z,41.83
2018-07-20T21:55:30.579Z,30.82
2018-07-20T21:57:59.966Z,31.20
2018-07-20T22:00:29.602Z,30.68
2018-07-20T22:02:58.287Z,44.05
2018-07-20T22:05:27.138Z,43.17
2018-07-20T22:07:55.801Z,64.72
2018-07-20T22:10:24.549Z,46.88
2018-07-20T22:12:53.311Z,25.23
2018-07-20T22:15:22.023Z,44.17
2018-07-20T22:17:50.723Z,31.00
2018-07-20T22:20:19.409Z,24.60
2018-07-20T22:22:49.167Z,27.67
2018-07-20T22:25:17.820Z,24.57
2018-07-20T22:27:46.602Z,23.10
2018-07-20T22:30:15.323Z,17.67
2018-07-20T22:32:44.065Z,15.08
2018-07-20T22:35:12.695Z,23.27
2018-07-20T22:37:42.483Z,22.32
2018-07-20T22:40:11.203Z,14.23
2018-07-20T22:42:39.818Z,14.30
2018-07-20T22:45:08.466Z,16.82
2018-07-20T22:47:39.190Z,34.00
2018-07-20T22:50:08.922Z,17.23
2018-07-20T22:52:37.608Z,18.32
2018-07-20T22:55:06.372Z,16.73
2018-07-20T22:57:35.262Z,17.25
2018-07-20T23:00:03.936Z,16.12
2018-07-20T23:02:32.602Z,14.58
2018-07-20T23:05:01.246Z,9.15
2018-07-20T23:07:29.942Z,12.10
2018-07-20T23:09:58.626Z,9.38
2018-07-20T23:12:27.363Z,12.82
2018-07-20T23:14:56.031Z,13.45
2018-07-20T23:17:24.676Z,18.32
2018-07-20T23:19:53.379Z,10.70
2018-07-20T23:22:22.044Z,9.65
2018-07-20T23:24:51.797Z,11.03
2018-07-20T23:27:21.510Z,10.63
2018-07-20T23:29:50.302Z,10.38
2018-07-20T23:32:18.990Z,10.48
2018-07-20T23:34:47.613Z,7.58
2018-07-20T23:37:17.189Z,9.98
2018-07-20T23:39:46.545Z,7.80
2018-07-20T23:42:15.206Z,7.25
2018-07-20T23:44:43.895Z,7.58
2018-07-20T23:47:13.577Z,8.45
2018-07-20T23:49:42.209Z,8.08
2018-07-20T23:52:10.870Z,14.93
2018-07-20T23:54:39.694Z,8.90
2018-07-20T23:57:09.152Z,13.18
2018-07-20T23:59:37.809Z,9.70
